createdAt,value
2023-05-01T00:03:24.602Z,11.40
2023-05-01T00:07:26.500Z,11.51
2023-05-01T00:11:25.511Z,11.50
2023-05-01T00:15:10.569Z,11.49
2023-05-01T00:18:55.778Z,11.44
2023-05-01T00:22:40.760Z,11.46
2023-05-01T00:26:26.068Z,11.40
2023-05-01T00:30:11.396Z,11.40
2023-05-01T00:33:56.324Z,11.38
2023-05-01T00:37:41.607Z,11.36
2023-05-01T00:41:26.596Z,11.36
2023-05-01T00:45:11.414Z,11.32
2023-05-01T00:48:56.672Z,11.30
2023-05-01T00:52:41.979Z,11.31
2023-05-01T00:56:27.108Z,11.23
2023-05-01T01:00:12.383Z,11.15
2023-05-01T01:03:57.638Z,11.13
2023-05-01T01:07:42.747Z,11.13
2023-05-01T01:11:27.983Z,11.11
2023-05-01T01:15:13.049Z,11.11
2023-05-01T01:18:58.470Z,11.05
2023-05-01T01:22:43.460Z,10.91
2023-05-01T01:26:28.697Z,10.90
2023-05-01T01:30:13.693Z,10.87
2023-05-01T01:33:58.828Z,10.74
2023-05-01T01:37:44.078Z,10.64
2023-05-01T01:41:30.195Z,10.66
2023-05-01T01:45:15.398Z,10.67
2023-05-01T01:49:06.894Z,10.65
2023-05-01T01:52:58.807Z,10.58
2023-05-01T01:56:56.678Z,10.55
2023-05-01T02:00:56.323Z,10.49
2023-05-01T02:04:54.113Z,10.46
2023-05-01T02:08:55.271Z,10.41
2023-05-01T02:12:53.047Z,10.35
2023-05-01T02:16:53.300Z,10.33
2023-05-01T02:20:51.608Z,10.31
2023-05-01T02:24:49.953Z,10.29
2023-05-01T02:28:34.899Z,10.25
2023-05-01T02:32:20.032Z,10.19
2023-05-01T02:36:05.223Z,10.13
2023-05-01T02:39:50.748Z,10.06
2023-05-01T02:43:35.893Z,9.98
2023-05-01T02:47:20.968Z,9.86
2023-05-01T02:51:06.260Z,9.80
2023-05-01T02:54:57.776Z,9.78
2023-05-01T02:58:51.432Z,9.72
2023-05-01T03:02:42.944Z,9.74
2023-05-01T03:06:41.007Z,9.80
2023-05-01T03:10:41.103Z,9.82
2023-05-01T03:14:38.993Z,9.84
2023-05-01T03:18:39.453Z,9.90
2023-05-01T03:22:37.219Z,9.90
2023-05-01T03:26:37.328Z,9.93
2023-05-01T03:30:35.299Z,10.01
2023-05-01T03:34:32.312Z,10.06
2023-05-01T03:38:17.603Z,10.20
2023-05-01T03:42:21.134Z,10.30
2023-05-01T03:46:13.149Z,10.43
2023-05-01T03:50:04.702Z,10.56
2023-05-01T03:53:55.952Z,10.69
2023-05-01T03:57:56.207Z,10.81
2023-05-01T04:01:53.288Z,10.93
2023-05-01T04:05:53.233Z,11.04
2023-05-01T04:09:51.457Z,11.11
2023-05-01T04:13:51.306Z,11.22
2023-05-01T04:17:49.136Z,11.28
2023-05-01T04:21:49.241Z,11.37
2023-05-01T04:25:47.287Z,11.49
2023-05-01T04:29:49.362Z,11.71
2023-05-01T04:33:47.072Z,11.84
2023-05-01T04:37:47.468Z,12.07
2023-05-01T04:41:45.087Z,12.30
2023-05-01T04:45:45.303Z,12.52
2023-05-01T04:49:43.349Z,12.68
2023-05-01T04:53:43.376Z,12.93
2023-05-01T04:57:49.166Z,13.07
2023-05-01T05:01:40.025Z,13.41
2023-05-01T05:05:29.323Z,13.69
2023-05-01T05:09:20.611Z,13.91
2023-05-01T05:13:09.706Z,14.13
2023-05-01T05:17:01.205Z,14.29
2023-05-01T05:20:56.435Z,14.48
2023-05-01T05:24:56.559Z,14.61
2023-05-01T05:28:54.181Z,14.88
2023-05-01T05:32:54.477Z,15.21
2023-05-01T05:36:52.393Z,15.47
2023-05-01T05:40:54.496Z,15.70
2023-05-01T05:44:43.760Z,15.90
2023-05-01T05:48:35.724Z,16.06
2023-05-01T05:52:32.707Z,16.33
2023-05-01T05:56:30.579Z,16.49
2023-05-01T06:00:28.976Z,16.60
2023-05-01T06:04:31.643Z,16.57
2023-05-01T06:08:31.503Z,16.83
2023-05-01T06:12:29.181Z,16.94
2023-05-01T06:16:28.755Z,17.37
2023-05-01T06:20:17.806Z,17.23
2023-05-01T06:24:09.142Z,17.47
2023-05-01T06:28:18.057Z,17.64
2023-05-01T06:32:14.909Z,17.76
2023-05-01T06:36:00.194Z,17.98
2023-05-01T06:39:45.412Z,18.13
2023-05-01T06:43:31.270Z,18.24
2023-05-01T06:47:16.204Z,18.59
2023-05-01T06:51:01.199Z,18.70
2023-05-01T06:54:46.627Z,18.69
2023-05-01T06:58:31.784Z,18.82
2023-05-01T07:02:16.836Z,19.11
2023-05-01T07:06:15.085Z,19.02
2023-05-01T07:10:16.957Z,19.18
2023-05-01T07:14:15.291Z,19.20
2023-05-01T07:18:16.669Z,19.44
2023-05-01T07:22:15.061Z,19.46
2023-05-01T07:26:16.648Z,19.53
2023-05-01T07:30:15.167Z,19.81
2023-05-01T07:34:16.632Z,20.05
2023-05-01T07:38:15.184Z,20.40
2023-05-01T07:42:16.725Z,20.62
2023-05-01T07:46:15.288Z,20.20
2023-05-01T07:50:17.002Z,20.41
2023-05-01T07:54:15.098Z,21.00
2023-05-01T07:58:17.318Z,21.25
2023-05-01T08:02:15.343Z,21.43
2023-05-01T08:06:17.258Z,21.55
2023-05-01T08:10:15.274Z,21.44
2023-05-01T08:14:16.771Z,21.31
2023-05-01T08:18:15.264Z,19.09
2023-05-01T08:22:16.721Z,20.01
2023-05-01T08:26:15.307Z,20.53
2023-05-01T08:30:16.941Z,20.80
2023-05-01T08:34:15.395Z,20.87
2023-05-01T08:38:16.751Z,20.78
2023-05-01T08:42:15.250Z,20.25
2023-05-01T08:46:17.044Z,20.00
2023-05-01T08:50:15.164Z,20.09
2023-05-01T08:54:16.913Z,20.51
2023-05-01T08:58:15.266Z,21.06
2023-05-01T09:02:17.269Z,21.09
2023-05-01T09:06:15.484Z,21.17
2023-05-01T09:10:14.578Z,21.06
2023-05-01T09:14:10.830Z,21.30
2023-05-01T09:18:10.127Z,21.16
2023-05-01T09:22:05.659Z,21.24
2023-05-01T09:26:05.500Z,21.49
2023-05-01T09:30:01.048Z,21.24
2023-05-01T09:34:24.842Z,21.22
2023-05-01T09:38:38.711Z,21.61
2023-05-01T09:42:39.696Z,22.12
2023-05-01T09:46:36.324Z,22.25
2023-05-01T09:50:39.007Z,22.12
2023-05-01T09:54:35.102Z,22.21
2023-05-01T09:58:34.891Z,22.33
2023-05-01T10:02:35.746Z,22.59
2023-05-01T10:06:36.178Z,22.79
2023-05-01T10:10:31.779Z,23.06
2023-05-01T10:14:32.082Z,23.49
2023-05-01T10:18:31.259Z,23.30
2023-05-01T10:22:31.129Z,22.90
2023-05-01T10:26:28.363Z,22.99
2023-05-01T10:30:29.191Z,23.04
2023-05-01T10:34:26.389Z,22.89
2023-05-01T10:38:28.473Z,22.89
2023-05-01T10:42:28.042Z,22.79
2023-05-01T10:46:27.790Z,23.10
2023-05-01T10:50:24.242Z,23.49
2023-05-01T10:54:18.774Z,23.44
2023-05-01T10:58:15.672Z,21.91
2023-05-01T11:02:15.920Z,22.58
2023-05-01T11:06:20.992Z,22.86
2023-05-01T11:10:24.237Z,23.12
2023-05-01T11:14:22.487Z,23.02
2023-05-01T11:18:23.635Z,23.25
2023-05-01T11:22:21.542Z,23.49
2023-05-01T11:26:23.224Z,23.52
2023-05-01T11:30:21.560Z,23.72
2023-05-01T11:34:23.326Z,24.14
2023-05-01T11:38:21.576Z,24.78
2023-05-01T11:42:23.302Z,25.07
2023-05-01T11:46:21.772Z,24.85
2023-05-01T11:50:23.562Z,24.48
2023-05-01T11:54:21.765Z,24.28
2023-05-01T11:58:23.254Z,24.66
2023-05-01T12:02:21.842Z,24.94
2023-05-01T12:06:24.630Z,24.99
2023-05-01T12:10:22.796Z,24.74
2023-05-01T12:14:24.962Z,24.61
2023-05-01T12:18:24.003Z,24.00
2023-05-01T12:22:26.136Z,23.82
2023-05-01T12:26:24.867Z,24.06
2023-05-01T12:30:26.895Z,24.19
2023-05-01T12:34:27.874Z,23.93
2023-05-01T12:38:31.356Z,24.11
2023-05-01T12:42:30.677Z,24.30
2023-05-01T12:46:33.916Z,24.49
2023-05-01T12:50:30.375Z,24.75
2023-05-01T12:54:26.301Z,25.35
2023-05-01T12:58:26.077Z,25.51
2023-05-01T13:02:22.402Z,24.94
2023-05-01T13:06:25.349Z,25.21
2023-05-01T13:10:22.834Z,25.37
2023-05-01T13:14:22.477Z,25.79
2023-05-01T13:18:18.242Z,26.14
2023-05-01T13:22:18.309Z,26.34
2023-05-01T13:26:13.838Z,26.45
2023-05-01T13:30:13.578Z,27.03
2023-05-01T13:34:09.217Z,27.21
2023-05-01T13:38:10.058Z,26.82
2023-05-01T13:42:06.359Z,26.68
2023-05-01T13:46:05.921Z,26.69
2023-05-01T13:50:02.044Z,26.98
2023-05-01T13:54:01.840Z,26.79
2023-05-01T13:57:53.246Z,26.13
2023-05-01T14:01:52.724Z,26.01
2023-05-01T14:05:44.357Z,26.11
2023-05-01T14:09:44.092Z,26.21
2023-05-01T14:13:40.402Z,26.04
2023-05-01T14:17:40.337Z,25.26
2023-05-01T14:21:36.248Z,24.48
2023-05-01T14:25:35.919Z,24.08
2023-05-01T14:29:31.687Z,23.71
2023-05-01T14:33:31.167Z,22.34
2023-05-01T14:37:27.295Z,22.17
2023-05-01T14:41:26.587Z,21.69
2023-05-01T14:45:22.131Z,21.48
2023-05-01T14:49:21.968Z,21.27
2023-05-01T14:53:19.177Z,20.90
2023-05-01T14:57:20.134Z,20.65
2023-05-01T15:01:16.558Z,20.38
2023-05-01T15:05:16.456Z,20.10
2023-05-01T15:09:12.582Z,20.04
2023-05-01T15:13:11.568Z,19.86
2023-05-01T15:17:07.104Z,19.75
2023-05-01T15:21:06.306Z,19.64
2023-05-01T15:25:02.312Z,19.55
2023-05-01T15:29:02.257Z,19.45
2023-05-01T15:32:58.561Z,19.43
2023-05-01T15:36:58.128Z,19.35
2023-05-01T15:40:53.392Z,19.29
2023-05-01T15:44:52.951Z,19.22
2023-05-01T15:48:48.625Z,19.08
2023-05-01T15:52:47.631Z,19.09
2023-05-01T15:56:43.221Z,19.04
2023-05-01T16:00:42.854Z,18.85
2023-05-01T16:04:38.343Z,18.42
2023-05-01T16:08:37.805Z,18.41
2023-05-01T16:12:33.301Z,18.84
2023-05-01T16:16:32.335Z,18.81
2023-05-01T16:20:28.431Z,18.66
2023-05-01T16:24:28.228Z,18.59
2023-05-01T16:28:24.680Z,18.50
2023-05-01T16:32:24.311Z,18.39
2023-05-01T16:36:20.684Z,18.30
2023-05-01T16:40:19.950Z,18.22
2023-05-01T16:44:15.218Z,18.11
2023-05-01T16:48:14.697Z,17.94
2023-05-01T16:52:10.940Z,17.87
2023-05-01T16:56:10.398Z,17.88
2023-05-01T17:00:10.153Z,17.79
2023-05-01T17:04:06.765Z,17.61
2023-05-01T17:08:05.740Z,17.52
2023-05-01T17:12:01.761Z,17.33
2023-05-01T17:16:01.674Z,17.11
2023-05-01T17:19:57.781Z,16.95
2023-05-01T17:23:54.159Z,16.87
2023-05-01T17:27:53.525Z,16.71
2023-05-01T17:31:53.709Z,16.67
2023-05-01T17:35:49.685Z,16.56
2023-05-01T17:39:47.185Z,16.45
2023-05-01T17:43:46.482Z,16.31
2023-05-01T17:47:42.946Z,16.23
2023-05-01T17:51:38.480Z,15.98
2023-05-01T17:55:38.429Z,15.85
2023-05-01T17:59:38.449Z,15.75
2023-05-01T18:03:34.659Z,15.40
2023-05-01T18:07:35.318Z,15.18
2023-05-01T18:11:30.879Z,15.23
2023-05-01T18:15:30.705Z,15.10
2023-05-01T18:19:26.806Z,14.90
2023-05-01T18:23:26.145Z,14.76
2023-05-01T18:27:21.676Z,14.67
2023-05-01T18:31:21.675Z,14.55
2023-05-01T18:35:17.625Z,13.31
2023-05-01T18:39:17.223Z,13.63
2023-05-01T18:43:12.577Z,13.48
2023-05-01T18:47:11.844Z,13.32
2023-05-01T18:51:08.864Z,13.14
2023-05-01T18:55:09.020Z,12.95
2023-05-01T18:59:04.859Z,12.91
2023-05-01T19:03:04.512Z,12.76
2023-05-01T19:07:09.400Z,12.56
2023-05-01T19:11:11.579Z,12.41
2023-05-01T19:15:10.529Z,12.30
2023-05-01T19:19:12.151Z,12.13
2023-05-01T19:23:10.364Z,12.01
2023-05-01T19:27:11.900Z,11.81
2023-05-01T19:31:12.410Z,11.55
2023-05-01T19:35:15.805Z,11.47
2023-05-01T19:39:16.601Z,11.29
2023-05-01T19:43:18.644Z,10.98
2023-05-01T19:47:17.720Z,10.82
2023-05-01T19:51:20.145Z,10.57
2023-05-01T19:55:18.642Z,10.42
2023-05-01T19:59:20.514Z,10.36
2023-05-01T20:03:19.626Z,10.34
2023-05-01T20:07:22.869Z,10.14
2023-05-01T20:11:21.732Z,10.01
2023-05-01T20:15:23.458Z,9.94
2023-05-01T20:19:22.736Z,9.81
2023-05-01T20:23:24.891Z,9.73
2023-05-01T20:27:24.586Z,9.63
2023-05-01T20:31:31.059Z,9.64
2023-05-01T20:35:29.462Z,9.58
2023-05-01T20:39:31.459Z,9.51
2023-05-01T20:43:29.784Z,9.58
2023-05-01T20:47:31.769Z,9.29
2023-05-01T20:51:30.750Z,9.29
2023-05-01T20:55:32.849Z,9.33
2023-05-01T20:59:31.821Z,8.96
2023-05-01T21:03:34.162Z,8.92
2023-05-01T21:07:32.693Z,8.87
2023-05-01T21:11:33.172Z,8.80
2023-05-01T21:15:18.640Z,8.71
2023-05-01T21:19:03.748Z,8.66
2023-05-01T21:22:48.857Z,8.63
2023-05-01T21:26:34.194Z,8.55
2023-05-01T21:30:19.556Z,8.41
2023-05-01T21:34:05.787Z,8.34
2023-05-01T21:37:51.308Z,8.30
2023-05-01T21:41:36.758Z,8.25
2023-05-01T21:45:28.887Z,8.13
2023-05-01T21:49:20.783Z,8.04
2023-05-01T21:53:19.075Z,8.00
2023-05-01T21:57:19.531Z,7.97
2023-05-01T22:01:17.168Z,7.92
2023-05-01T22:05:17.190Z,7.83
2023-05-01T22:09:15.018Z,7.78
2023-05-01T22:13:15.331Z,7.76
2023-05-01T22:17:12.989Z,7.80
2023-05-01T22:21:13.557Z,7.70
2023-05-01T22:24:59.196Z,7.69
2023-05-01T22:28:46.488Z,7.62
2023-05-01T22:32:32.067Z,7.61
2023-05-01T22:36:17.727Z,7.52
2023-05-01T22:40:03.556Z,7.44
2023-05-01T22:43:49.530Z,7.37
2023-05-01T22:47:40.890Z,7.30
2023-05-01T22:51:33.154Z,7.24
2023-05-01T22:55:31.174Z,7.19
2023-05-01T22:59:31.483Z,7.19
2023-05-01T23:03:29.417Z,7.10
2023-05-01T23:07:35.585Z,6.96
2023-05-01T23:11:37.962Z,6.95
2023-05-01T23:15:36.910Z,6.83
2023-05-01T23:19:38.344Z,6.75
2023-05-01T23:23:37.064Z,6.69
2023-05-01T23:27:38.216Z,6.48
2023-05-01T23:31:36.332Z,6.41
2023-05-01T23:35:34.137Z,6.31
2023-05-01T23:39:34.587Z,6.23
2023-05-01T23:43:34.642Z,6.12
2023-05-01T23:47:30.215Z,6.00
2023-05-01T23:51:30.013Z,5.94
2023-05-01T23:55:26.577Z,5.95
2023-05-01T23:59:24.408Z,5.94
